Rondeau, Canada
Current Conditions -  °F | °C
As of 2:22 AM on Friday 31 Oct 2014 (Local Time) from CYCK Reporting Station
Light Rain Light Rain  
Wind Chill: 41°   Ceiling: 3700
Heat Index: 45°   Visibility: 9mi
Dew Point: 39°   Wind: 6mph
Humidity: 81%   Direction: 250°WSW
Pressure: 29.98"   Gusts: NA
Location:  42.28°N, 81.87°W
Report Text: CYCK 310622Z AUTO 25005KT 9SM -RA BKN037 OVC055 07/04 A2998 RMK SLP155
Loading
Personal Weather Stations






























Interactive Weather Map New forecast layout! Learn more

10-Day Weather Forecast

Advertisements
Track Severe Weather on mobile